createdAt,value
2022-09-17T00:01:31.227Z,100.00
2022-09-17T00:04:03.550Z,100.00
2022-09-17T00:06:34.410Z,100.00
2022-09-17T00:09:02.408Z,100.00
2022-09-17T00:11:33.773Z,100.00
2022-09-17T00:14:04.351Z,100.00
2022-09-17T00:16:41.510Z,100.00
2022-09-17T00:19:17.837Z,100.00
2022-09-17T00:21:44.829Z,100.00
2022-09-17T00:24:14.856Z,100.00
2022-09-17T00:26:43.036Z,100.00
2022-09-17T00:29:11.159Z,100.00
2022-09-17T00:31:38.035Z,100.00
2022-09-17T00:34:06.643Z,100.00
2022-09-17T00:36:39.129Z,100.00
2022-09-17T00:39:10.862Z,100.00
2022-09-17T00:41:39.373Z,100.00
2022-09-17T00:44:52.945Z,100.00
2022-09-17T00:47:35.158Z,100.00
2022-09-17T00:50:12.521Z,100.00
2022-09-17T00:52:59.805Z,100.00
2022-09-17T00:55:42.549Z,100.00
2022-09-17T00:58:15.357Z,100.00
2022-09-17T01:00:43.407Z,100.00
2022-09-17T01:03:10.073Z,100.00
2022-09-17T01:05:50.277Z,100.00
2022-09-17T01:08:57.653Z,100.00
2022-09-17T01:11:38.356Z,100.00
2022-09-17T01:14:55.852Z,100.00
2022-09-17T01:17:55.112Z,100.00
2022-09-17T01:21:02.399Z,100.00
2022-09-17T01:23:56.474Z,100.00
2022-09-17T01:26:51.183Z,100.00
2022-09-17T01:30:06.990Z,100.00
2022-09-17T01:33:03.209Z,100.00
2022-09-17T01:36:14.232Z,100.00
2022-09-17T01:39:04.758Z,100.00
2022-09-17T01:41:54.054Z,100.00
2022-09-17T01:44:35.708Z,100.00
2022-09-17T01:47:21.288Z,100.00
2022-09-17T01:49:56.199Z,100.00
2022-09-17T01:52:28.881Z,100.00
2022-09-17T01:55:05.962Z,100.00
2022-09-17T01:57:41.539Z,100.00
2022-09-17T02:00:14.716Z,100.00
2022-09-17T02:03:08.427Z,100.00
2022-09-17T02:05:56.661Z,100.00
2022-09-17T02:08:56.348Z,100.00
2022-09-17T02:11:23.770Z,100.00
2022-09-17T02:13:58.738Z,100.00
2022-09-17T02:16:33.172Z,100.00
2022-09-17T02:19:25.342Z,100.00
2022-09-17T02:22:07.448Z,100.00
2022-09-17T02:24:57.494Z,100.00
2022-09-17T02:28:04.729Z,100.00
2022-09-17T02:30:32.529Z,100.00
2022-09-17T02:33:06.755Z,100.00
2022-09-17T02:35:33.408Z,100.00
2022-09-17T02:38:01.266Z,100.00
2022-09-17T02:40:36.314Z,100.00
2022-09-17T02:43:41.998Z,100.00
2022-09-17T02:46:48.483Z,100.00
2022-09-17T02:50:23.025Z,100.00
2022-09-17T02:53:32.876Z,100.00
2022-09-17T02:56:20.424Z,100.00
2022-09-17T02:59:16.829Z,100.00
2022-09-17T03:02:09.004Z,100.00
2022-09-17T03:04:39.731Z,100.00
2022-09-17T03:07:11.997Z,100.00
2022-09-17T03:09:39.286Z,100.00
2022-09-17T03:12:06.510Z,100.00
2022-09-17T03:14:33.259Z,100.00
2022-09-17T03:16:59.892Z,100.00
2022-09-17T03:19:27.895Z,100.00
2022-09-17T03:21:54.789Z,100.00
2022-09-17T03:24:21.644Z,100.00
2022-09-17T03:26:49.272Z,100.00
2022-09-17T03:29:16.971Z,100.00
2022-09-17T03:31:44.057Z,100.00
2022-09-17T03:34:10.938Z,100.00
2022-09-17T03:36:37.587Z,100.00
2022-09-17T03:39:04.477Z,100.00
2022-09-17T03:41:31.396Z,100.00
2022-09-17T03:43:58.127Z,100.00
2022-09-17T03:46:24.961Z,100.00
2022-09-17T03:48:51.602Z,100.00
2022-09-17T03:51:18.373Z,100.00
2022-09-17T03:53:45.026Z,100.00
2022-09-17T03:56:11.687Z,100.00
2022-09-17T03:58:38.927Z,100.00
2022-09-17T04:01:05.690Z,100.00
2022-09-17T04:03:33.630Z,100.00
2022-09-17T04:06:00.261Z,100.00
2022-09-17T04:08:27.142Z,100.00
2022-09-17T04:10:54.058Z,100.00
2022-09-17T04:13:21.614Z,100.00
2022-09-17T04:15:49.057Z,100.00
2022-09-17T04:18:16.365Z,100.00
2022-09-17T04:20:43.664Z,100.00
2022-09-17T04:23:13.899Z,100.00
2022-09-17T04:25:40.876Z,100.00
2022-09-17T04:28:08.370Z,100.00
2022-09-17T04:30:35.217Z,100.00
2022-09-17T04:33:02.180Z,100.00
2022-09-17T04:35:29.247Z,100.00
2022-09-17T04:37:59.852Z,100.00
2022-09-17T04:40:28.008Z,100.00
2022-09-17T04:43:02.905Z,100.00
2022-09-17T04:45:33.389Z,100.00
2022-09-17T04:48:00.554Z,100.00
2022-09-17T04:50:27.739Z,100.00
2022-09-17T04:52:54.528Z,100.00
2022-09-17T04:55:21.559Z,100.00
2022-09-17T04:57:54.541Z,100.00
2022-09-17T05:00:24.157Z,100.00
2022-09-17T05:02:55.191Z,100.00
2022-09-17T05:05:25.915Z,100.00
2022-09-17T05:07:53.066Z,100.00
2022-09-17T05:10:23.534Z,100.00
2022-09-17T05:12:57.108Z,100.00
2022-09-17T05:15:26.051Z,100.00
2022-09-17T05:17:52.923Z,100.00
2022-09-17T05:20:20.409Z,100.00
2022-09-17T05:22:51.611Z,100.00
2022-09-17T05:25:26.246Z,100.00
2022-09-17T05:27:54.776Z,100.00
2022-09-17T05:30:22.309Z,100.00
2022-09-17T05:32:49.537Z,100.00
2022-09-17T05:35:16.964Z,100.00
2022-09-17T05:37:43.744Z,100.00
2022-09-17T05:40:10.737Z,100.00
2022-09-17T05:42:37.676Z,100.00
2022-09-17T05:45:05.615Z,100.00
2022-09-17T05:47:32.863Z,100.00
2022-09-17T05:49:59.652Z,100.00
2022-09-17T05:52:30.058Z,100.00
2022-09-17T05:54:57.180Z,100.00
2022-09-17T05:57:24.677Z,100.00
2022-09-17T05:59:51.592Z,100.00
2022-09-17T06:02:18.567Z,100.00
2022-09-17T06:04:46.256Z,100.00
2022-09-17T06:07:13.499Z,100.00
2022-09-17T06:09:43.737Z,100.00
2022-09-17T06:12:11.235Z,100.00
2022-09-17T06:14:38.308Z,100.00
2022-09-17T06:17:05.143Z,100.00
2022-09-17T06:19:31.915Z,100.00
2022-09-17T06:21:58.656Z,100.00
2022-09-17T06:24:26.076Z,100.00
2022-09-17T06:26:55.831Z,100.00
2022-09-17T06:32:03.715Z,100.00
2022-09-17T06:34:30.392Z,100.00
2022-09-17T06:36:57.017Z,100.00
2022-09-17T06:39:24.381Z,100.00
2022-09-17T06:41:53.545Z,100.00
2022-09-17T06:44:20.211Z,100.00
2022-09-17T06:46:51.206Z,100.00
2022-09-17T06:49:19.221Z,100.00
2022-09-17T06:51:46.073Z,100.00
2022-09-17T06:54:15.406Z,100.00
2022-09-17T06:56:42.082Z,100.00
2022-09-17T06:59:08.914Z,100.00
2022-09-17T07:01:35.669Z,100.00
2022-09-17T07:04:03.214Z,100.00
2022-09-17T07:06:29.976Z,100.00
2022-09-17T07:09:10.856Z,100.00
2022-09-17T07:11:39.701Z,100.00
2022-09-17T07:14:07.022Z,100.00
2022-09-17T07:16:35.957Z,100.00
2022-09-17T07:19:09.008Z,100.00
2022-09-17T07:21:35.916Z,100.00
2022-09-17T07:24:03.718Z,100.00
2022-09-17T07:26:35.291Z,100.00
2022-09-17T07:29:02.088Z,100.00
2022-09-17T07:31:28.867Z,100.00
2022-09-17T07:33:59.298Z,100.00
2022-09-17T07:36:26.819Z,100.00
2022-09-17T07:38:53.939Z,100.00
2022-09-17T07:41:27.554Z,100.00
2022-09-17T07:44:00.706Z,100.00
2022-09-17T07:46:27.684Z,100.00
2022-09-17T07:51:40.676Z,100.00
2022-09-17T07:54:08.028Z,100.00
2022-09-17T07:56:34.788Z,100.00
2022-09-17T07:59:04.157Z,100.00
2022-09-17T08:01:36.633Z,100.00
2022-09-17T08:04:04.829Z,100.00
2022-09-17T08:06:36.017Z,100.00
2022-09-17T08:09:04.510Z,98.35
2022-09-17T08:14:23.567Z,95.67
2022-09-17T08:16:52.599Z,94.64
2022-09-17T08:19:19.970Z,95.36
2022-09-17T08:21:47.582Z,97.57
2022-09-17T08:24:14.394Z,95.08
2022-09-17T08:26:41.505Z,93.82
2022-09-17T08:29:08.234Z,92.83
2022-09-17T08:34:16.876Z,88.80
2022-09-17T08:36:44.076Z,87.17
2022-09-17T08:39:12.224Z,84.70
2022-09-17T08:42:21.172Z,83.68
2022-09-17T08:47:39.079Z,88.12
2022-09-17T08:50:16.603Z,84.27
2022-09-17T08:56:19.540Z,83.23
2022-09-17T08:59:21.648Z,83.32
2022-09-17T09:05:37.345Z,81.23
2022-09-17T09:08:43.900Z,85.59
2022-09-17T09:11:27.737Z,90.13
2022-09-17T09:16:58.613Z,90.68
2022-09-17T09:22:53.160Z,91.15
2022-09-17T09:25:37.886Z,92.46
2022-09-17T09:34:55.029Z,92.85
2022-09-17T09:37:35.118Z,91.26
2022-09-17T09:40:33.798Z,90.75
2022-09-17T09:43:16.145Z,91.88
2022-09-17T09:46:24.727Z,92.21
2022-09-17T09:49:00.675Z,89.60
2022-09-17T09:51:52.332Z,82.89
2022-09-17T09:54:56.566Z,79.80
2022-09-17T09:57:47.595Z,80.66
2022-09-17T10:00:40.016Z,78.58
2022-09-17T10:03:26.359Z,82.17
2022-09-17T10:06:06.458Z,82.94
2022-09-17T10:08:42.621Z,82.88
2022-09-17T10:11:11.999Z,82.41
2022-09-17T10:13:39.836Z,79.83
2022-09-17T10:16:27.693Z,79.90
2022-09-17T10:19:06.568Z,75.99
2022-09-17T10:21:35.691Z,76.05
2022-09-17T10:24:22.090Z,75.14
2022-09-17T10:26:50.142Z,77.93
2022-09-17T10:29:21.281Z,82.04
2022-09-17T10:31:55.729Z,85.11
2022-09-17T10:34:31.260Z,86.62
2022-09-17T10:36:58.525Z,86.31
2022-09-17T10:39:44.394Z,85.00
2022-09-17T10:42:18.950Z,81.04
2022-09-17T10:44:56.974Z,76.96
2022-09-17T10:47:41.023Z,77.46
2022-09-17T10:59:51.443Z,74.50
2022-09-17T11:02:56.604Z,85.00
2022-09-17T11:05:38.842Z,89.79
2022-09-17T11:08:57.388Z,96.63
2022-09-17T11:11:30.017Z,98.89
2022-09-17T11:14:35.898Z,100.00
2022-09-17T11:17:41.368Z,100.00
2022-09-17T11:20:59.927Z,100.00
2022-09-17T11:24:20.334Z,100.00
2022-09-17T11:27:18.541Z,100.00
2022-09-17T11:30:22.031Z,100.00
2022-09-17T11:33:28.687Z,100.00
2022-09-17T11:36:13.379Z,100.00
2022-09-17T11:38:52.833Z,100.00
2022-09-17T11:41:41.075Z,100.00
2022-09-17T11:44:14.674Z,100.00
2022-09-17T11:47:07.541Z,100.00
2022-09-17T11:49:50.427Z,100.00
2022-09-17T11:52:26.095Z,100.00
2022-09-17T11:55:34.863Z,100.00
2022-09-17T11:58:21.404Z,100.00
2022-09-17T12:01:04.275Z,100.00
2022-09-17T12:03:53.301Z,100.00
2022-09-17T12:06:40.244Z,100.00
2022-09-17T12:09:22.140Z,100.00
2022-09-17T12:12:31.887Z,100.00
2022-09-17T12:15:22.759Z,100.00
2022-09-17T12:21:09.619Z,100.00
2022-09-17T12:23:54.241Z,100.00
2022-09-17T12:26:59.037Z,100.00
2022-09-17T12:30:05.201Z,100.00
2022-09-17T12:32:39.557Z,100.00
2022-09-17T12:36:02.604Z,100.00
2022-09-17T12:39:31.224Z,100.00
2022-09-17T12:42:31.709Z,100.00
2022-09-17T12:45:31.343Z,100.00
2022-09-17T12:49:08.044Z,100.00
2022-09-17T12:51:58.566Z,100.00
2022-09-17T12:55:01.987Z,100.00
2022-09-17T12:58:06.662Z,100.00
2022-09-17T13:00:52.694Z,100.00
2022-09-17T13:04:06.082Z,100.00
2022-09-17T13:07:16.047Z,100.00
2022-09-17T13:10:19.601Z,100.00
2022-09-17T13:13:29.354Z,100.00
2022-09-17T13:16:59.153Z,100.00
2022-09-17T13:19:42.452Z,100.00
2022-09-17T13:22:23.535Z,100.00
2022-09-17T13:25:11.692Z,100.00
2022-09-17T13:27:40.827Z,100.00
2022-09-17T13:30:11.082Z,100.00
2022-09-17T13:32:39.627Z,100.00
2022-09-17T13:35:12.118Z,100.00
2022-09-17T13:37:53.660Z,100.00
2022-09-17T13:40:28.441Z,100.00
2022-09-17T13:43:08.267Z,100.00
2022-09-17T13:46:00.512Z,100.00
2022-09-17T13:48:32.474Z,100.00
2022-09-17T13:51:34.045Z,100.00
2022-09-17T13:54:10.824Z,100.00
2022-09-17T13:56:48.404Z,100.00
2022-09-17T13:59:27.149Z,100.00
2022-09-17T14:02:18.698Z,100.00
2022-09-17T14:04:49.132Z,100.00
2022-09-17T14:07:21.714Z,100.00
2022-09-17T14:10:02.185Z,100.00
2022-09-17T14:12:41.233Z,100.00
2022-09-17T14:15:43.444Z,100.00
2022-09-17T14:18:28.638Z,100.00
2022-09-17T14:21:30.942Z,100.00
2022-09-17T14:24:29.877Z,100.00
2022-09-17T14:27:34.061Z,100.00
2022-09-17T14:30:20.462Z,100.00
2022-09-17T14:32:59.131Z,100.00
2022-09-17T14:35:57.444Z,100.00
2022-09-17T14:38:46.628Z,100.00
2022-09-17T14:41:13.965Z,100.00
2022-09-17T14:44:15.421Z,100.00
2022-09-17T14:47:13.267Z,100.00
2022-09-17T14:49:40.972Z,100.00
2022-09-17T14:52:32.628Z,100.00
2022-09-17T14:55:33.143Z,100.00
2022-09-17T14:58:04.881Z,100.00
2022-09-17T15:00:38.629Z,100.00
2022-09-17T15:03:06.755Z,100.00
2022-09-17T15:05:43.337Z,100.00
2022-09-17T15:08:09.847Z,100.00
2022-09-17T15:11:00.081Z,100.00
2022-09-17T15:13:38.354Z,100.00
2022-09-17T15:16:33.636Z,100.00
2022-09-17T15:19:04.221Z,100.00
2022-09-17T15:21:43.048Z,100.00
2022-09-17T15:24:54.274Z,100.00
2022-09-17T15:27:42.105Z,100.00
2022-09-17T15:30:16.124Z,100.00
2022-09-17T15:32:51.705Z,100.00
2022-09-17T15:35:35.368Z,100.00
2022-09-17T15:38:29.253Z,100.00
2022-09-17T15:41:31.821Z,100.00
2022-09-17T15:44:31.879Z,100.00
2022-09-17T15:47:48.215Z,100.00
2022-09-17T15:50:28.952Z,100.00
2022-09-17T15:53:20.522Z,100.00
2022-09-17T15:56:13.164Z,100.00
2022-09-17T15:58:42.840Z,100.00
2022-09-17T16:01:15.514Z,100.00
2022-09-17T16:03:43.351Z,100.00
2022-09-17T16:06:19.410Z,100.00
2022-09-17T16:09:01.090Z,100.00
2022-09-17T16:11:34.339Z,100.00
2022-09-17T16:14:01.819Z,100.00
2022-09-17T16:16:37.896Z,100.00
2022-09-17T16:19:09.347Z,100.00
2022-09-17T16:21:36.086Z,100.00
2022-09-17T16:24:02.750Z,100.00
2022-09-17T16:26:35.122Z,100.00
2022-09-17T16:29:16.688Z,100.00
2022-09-17T16:31:45.771Z,100.00
2022-09-17T16:34:12.402Z,100.00
2022-09-17T16:36:39.419Z,100.00
2022-09-17T16:39:06.089Z,100.00
2022-09-17T16:41:32.850Z,100.00
2022-09-17T16:43:59.611Z,100.00
2022-09-17T16:46:26.560Z,100.00
2022-09-17T16:48:53.369Z,100.00
2022-09-17T16:51:20.118Z,100.00
2022-09-17T16:53:47.057Z,100.00
2022-09-17T16:56:16.030Z,100.00
2022-09-17T16:58:43.132Z,100.00
2022-09-17T17:01:14.568Z,100.00
2022-09-17T17:03:42.846Z,100.00
2022-09-17T17:06:21.682Z,100.00
2022-09-17T17:08:49.502Z,100.00
2022-09-17T17:11:16.149Z,100.00
2022-09-17T17:13:46.802Z,100.00
2022-09-17T17:16:15.408Z,100.00
2022-09-17T17:18:46.431Z,100.00
2022-09-17T17:21:14.614Z,100.00
2022-09-17T17:23:47.081Z,100.00
2022-09-17T17:26:16.662Z,100.00
2022-09-17T17:28:44.116Z,100.00
2022-09-17T17:31:11.702Z,100.00
2022-09-17T17:33:38.784Z,100.00
2022-09-17T17:36:08.162Z,100.00
2022-09-17T17:38:36.926Z,100.00
2022-09-17T17:41:11.849Z,100.00
2022-09-17T17:43:40.176Z,100.00
2022-09-17T17:46:10.266Z,100.00
2022-09-17T17:48:38.205Z,100.00
2022-09-17T17:51:10.609Z,100.00
2022-09-17T17:53:42.614Z,100.00
2022-09-17T17:56:11.851Z,100.00
2022-09-17T17:58:40.581Z,100.00
2022-09-17T18:01:24.809Z,100.00
2022-09-17T18:04:03.776Z,100.00
2022-09-17T18:06:30.941Z,100.00
2022-09-17T18:08:58.215Z,100.00
2022-09-17T18:11:25.880Z,100.00
2022-09-17T18:14:01.977Z,100.00
2022-09-17T18:16:29.968Z,100.00
2022-09-17T18:19:00.984Z,100.00
2022-09-17T18:21:27.900Z,100.00
2022-09-17T18:23:59.101Z,100.00
2022-09-17T18:26:43.314Z,100.00
2022-09-17T18:29:11.730Z,100.00
2022-09-17T18:31:38.859Z,100.00
2022-09-17T18:34:14.245Z,100.00
2022-09-17T18:36:42.492Z,100.00
2022-09-17T18:42:01.614Z,100.00
2022-09-17T18:44:28.383Z,100.00
2022-09-17T18:46:55.059Z,100.00
2022-09-17T18:49:21.950Z,100.00
2022-09-17T18:51:48.804Z,100.00
2022-09-17T18:54:15.573Z,100.00
2022-09-17T18:56:42.465Z,100.00
2022-09-17T18:59:10.744Z,100.00
2022-09-17T19:01:37.762Z,100.00
2022-09-17T19:04:07.622Z,100.00
2022-09-17T19:06:34.852Z,100.00
2022-09-17T19:09:04.971Z,100.00
2022-09-17T19:11:32.070Z,100.00
2022-09-17T19:13:58.948Z,100.00
2022-09-17T19:16:25.890Z,100.00
2022-09-17T19:18:55.799Z,100.00
2022-09-17T19:21:23.728Z,100.00
2022-09-17T19:23:52.497Z,100.00
2022-09-17T19:26:24.583Z,100.00
2022-09-17T19:28:58.696Z,100.00
2022-09-17T19:31:27.279Z,100.00
2022-09-17T19:33:55.374Z,100.00
2022-09-17T19:36:22.277Z,100.00
2022-09-17T19:38:49.622Z,100.00
2022-09-17T19:41:22.928Z,100.00
2022-09-17T19:43:53.252Z,100.00
2022-09-17T19:46:25.263Z,100.00
2022-09-17T19:48:57.031Z,100.00
2022-09-17T19:51:31.780Z,100.00
2022-09-17T19:53:58.583Z,100.00
2022-09-17T19:56:27.812Z,100.00
2022-09-17T19:58:55.130Z,100.00
2022-09-17T20:01:22.152Z,100.00
2022-09-17T20:03:48.958Z,100.00
2022-09-17T20:06:20.842Z,100.00
2022-09-17T20:08:51.917Z,100.00
2022-09-17T20:11:23.177Z,100.00
2022-09-17T20:13:51.058Z,100.00
2022-09-17T20:16:21.653Z,100.00
2022-09-17T20:18:53.198Z,100.00
2022-09-17T20:21:28.715Z,100.00
2022-09-17T20:23:57.536Z,100.00
2022-09-17T20:26:26.076Z,100.00
2022-09-17T20:28:56.346Z,100.00
2022-09-17T20:31:30.386Z,100.00
2022-09-17T20:34:01.884Z,100.00
2022-09-17T20:36:33.762Z,100.00
2022-09-17T20:39:21.907Z,100.00
2022-09-17T20:41:47.441Z,100.00
2022-09-17T20:44:17.825Z,100.00
2022-09-17T20:46:44.763Z,100.00
2022-09-17T20:49:11.517Z,100.00
2022-09-17T20:51:38.458Z,100.00
2022-09-17T20:54:06.528Z,100.00
2022-09-17T20:56:35.254Z,100.00
2022-09-17T20:59:20.483Z,100.00
2022-09-17T21:01:49.841Z,100.00
2022-09-17T21:04:22.029Z,100.00
2022-09-17T21:06:53.988Z,100.00
2022-09-17T21:09:20.751Z,100.00
2022-09-17T21:11:49.179Z,100.00
2022-09-17T21:14:20.495Z,100.00
2022-09-17T21:16:47.276Z,100.00
2022-09-17T21:19:16.486Z,100.00
2022-09-17T21:21:44.480Z,100.00
2022-09-17T21:24:11.272Z,100.00
2022-09-17T21:26:37.956Z,100.00
2022-09-17T21:29:05.269Z,100.00
2022-09-17T21:31:36.926Z,100.00
2022-09-17T21:34:09.683Z,100.00
2022-09-17T21:36:40.073Z,100.00
2022-09-17T21:39:15.037Z,100.00
2022-09-17T21:41:47.980Z,100.00
2022-09-17T21:44:15.852Z,100.00
2022-09-17T21:46:43.403Z,100.00
2022-09-17T21:49:13.005Z,100.00
2022-09-17T21:51:42.738Z,100.00
2022-09-17T21:54:16.809Z,100.00
2022-09-17T21:56:46.897Z,100.00
2022-09-17T21:59:16.570Z,100.00
2022-09-17T22:01:48.103Z,100.00
2022-09-17T22:04:20.571Z,100.00
2022-09-17T22:06:50.079Z,100.00
2022-09-17T22:09:23.731Z,100.00
2022-09-17T22:11:52.687Z,100.00
2022-09-17T22:14:24.125Z,100.00
2022-09-17T22:16:57.111Z,100.00
2022-09-17T22:19:25.856Z,100.00
2022-09-17T22:21:56.007Z,100.00
2022-09-17T22:24:25.038Z,100.00
2022-09-17T22:26:57.913Z,100.00
2022-09-17T22:29:30.163Z,100.00
2022-09-17T22:31:57.379Z,100.00
2022-09-17T22:34:25.226Z,100.00
2022-09-17T22:36:51.982Z,100.00
2022-09-17T22:39:22.060Z,100.00
2022-09-17T22:41:50.108Z,100.00
2022-09-17T22:44:20.562Z,100.00
2022-09-17T22:46:51.206Z,100.00
2022-09-17T22:49:19.470Z,100.00
2022-09-17T22:51:47.228Z,100.00
2022-09-17T22:54:18.443Z,100.00
2022-09-17T22:56:49.037Z,100.00
2022-09-17T22:59:18.083Z,100.00
2022-09-17T23:01:45.070Z,100.00
2022-09-17T23:04:12.175Z,100.00
2022-09-17T23:06:44.049Z,100.00
2022-09-17T23:09:13.964Z,100.00
2022-09-17T23:11:41.593Z,100.00
2022-09-17T23:14:13.124Z,100.00
2022-09-17T23:16:46.189Z,100.00
2022-09-17T23:19:16.825Z,100.00
2022-09-17T23:21:45.230Z,100.00
2022-09-17T23:24:21.690Z,100.00
2022-09-17T23:26:49.942Z,100.00
2022-09-17T23:29:20.844Z,100.00
2022-09-17T23:31:47.685Z,100.00
2022-09-17T23:34:14.532Z,100.00
2022-09-17T23:36:41.396Z,100.00
2022-09-17T23:39:11.878Z,100.00
2022-09-17T23:41:46.150Z,100.00
2022-09-17T23:44:15.580Z,100.00
2022-09-17T23:46:44.701Z,100.00
2022-09-17T23:49:14.253Z,100.00
2022-09-17T23:51:41.834Z,100.00
2022-09-17T23:54:09.165Z,100.00
2022-09-17T23:56:35.949Z,100.00
2022-09-17T23:59:03.123Z,100.00
